Time;durP1;ratioP1;P1;durP2;ratioP2;P2;SDS_P1;SDS_P2;PMS_P1;PMS_P2;Temp;Humidity;BMP_temperature;BMP_pressure;BME280_temperature;BME280_humidity;BME280_pressure;Samples;Min_cycle;Max_cycle;Signal;HPM_P1;HPM_P2
2022/12/17 13:06:48;;;;;;;38.27;27.93;;;-0.60;99.90;;;;;;5057052;28;20169;-67
2022/12/17 13:09:16;;;;;;;37.00;26.93;;;-0.50;99.90;;;;;;5038863;28;20183;-67
2022/12/17 13:11:47;;;;;;;34.57;27.90;;;-0.50;99.90;;;;;;5038789;28;20239;-67
2022/12/17 13:14:25;;;;;;;37.83;25.53;;;-0.50;99.90;;;;;;5038632;28;20211;-67
2022/12/17 13:16:56;;;;;;;43.10;28.77;;;-0.50;99.90;;;;;;5039008;28;20540;-67
2022/12/17 13:19:31;;;;;;;34.83;25.90;;;-0.70;99.90;;;;;;5038622;28;20202;-67
2022/12/17 13:22:26;;;;;;;34.47;27.10;;;-0.70;99.90;;;;;;5056742;28;20190;-66
2022/12/17 13:24:55;;;;;;;38.60;27.37;;;-0.80;99.90;;;;;;5056567;28;20167;-67
2022/12/17 13:27:33;;;;;;;38.80;26.20;;;-0.90;99.90;;;;;;5056568;28;20177;-67
2022/12/17 13:30:13;;;;;;;40.73;27.47;;;-0.80;99.90;;;;;;5038464;28;20186;-67
2022/12/17 13:32:49;;;;;;;41.17;26.93;;;-0.80;99.90;;;;;;5056654;28;20198;-67
2022/12/17 13:35:29;;;;;;;35.93;27.37;;;-0.80;99.90;;;;;;5056337;28;20163;-67
2022/12/17 13:38:00;;;;;;;34.93;25.87;;;-0.80;99.90;;;;;;5038281;28;20265;-67
2022/12/17 13:40:26;;;;;;;39.23;26.07;;;-0.90;99.90;;;;;;5056607;28;20524;-67
2022/12/17 13:42:52;;;;;;;36.60;26.37;;;-0.80;99.90;;;;;;5038083;28;20199;-67
2022/12/17 13:45:22;;;;;;;42.10;28.17;;;-0.90;99.90;;;;;;5056291;28;20225;-67
2022/12/17 13:47:58;;;;;;;45.13;31.07;;;-0.90;99.90;;;;;;5055849;28;20178;-67
2022/12/17 13:50:25;;;;;;;37.43;27.77;;;-1.00;99.90;;;;;;5056605;28;20158;-66
2022/12/17 13:52:51;;;;;;;48.30;32.47;;;-1.00;99.90;;;;;;5055924;28;20244;-66
2022/12/17 13:55:20;;;;;;;42.03;28.77;;;-1.00;99.90;;;;;;5055856;28;20227;-67
2022/12/17 13:57:47;;;;;;;38.30;29.27;;;-1.00;99.90;;;;;;5036867;28;20178;-67
2022/12/17 14:00:24;;;;;;;41.30;29.87;;;-1.10;99.90;;;;;;5055784;28;20171;-67
2022/12/17 14:02:52;;;;;;;37.50;28.17;;;-1.10;99.90;;;;;;5037562;28;20226;-67
2022/12/17 14:05:36;;;;;;;38.97;29.27;;;-1.10;99.90;;;;;;5037813;28;20647;-67
2022/12/17 14:08:04;;;;;;;59.03;35.87;;;-1.20;99.90;;;;;;5038029;28;20538;-67
2022/12/17 14:10:31;;;;;;;46.70;31.13;;;-1.20;99.90;;;;;;5055638;28;20190;-67
2022/12/17 14:13:11;;;;;;;55.20;33.97;;;-1.30;99.90;;;;;;5055747;28;20555;-66
2022/12/17 14:15:37;;;;;;;43.50;29.57;;;-1.30;99.90;;;;;;5037529;28;20175;-67
2022/12/17 14:18:03;;;;;;;39.93;29.97;;;-1.40;99.90;;;;;;5055431;28;20162;-66
2022/12/17 14:20:35;;;;;;;43.57;30.53;;;-1.40;99.90;;;;;;5039051;28;20671;-67
2022/12/17 14:23:05;;;;;;;42.90;29.43;;;-1.50;99.90;;;;;;5055770;28;20194;-67
2022/12/17 14:25:43;;;;;;;40.83;28.23;;;-1.70;99.90;;;;;;5054052;28;20191;-66
2022/12/17 14:28:35;;;;;;;41.07;28.77;;;-1.80;99.90;;;;;;5055848;28;20202;-66
2022/12/17 14:31:23;;;;;;;44.77;30.87;;;-1.90;99.90;;;;;;5056436;28;20204;-65
2022/12/17 14:34:07;;;;;;;39.87;28.17;;;-2.00;99.90;;;;;;5054689;28;20211;-69
2022/12/17 14:36:35;;;;;;;45.63;29.63;;;-2.10;99.90;;;;;;5055036;28;20183;-67
2022/12/17 14:39:10;;;;;;;43.90;31.27;;;-2.30;99.90;;;;;;5056137;28;20216;-67
2022/12/17 14:44:26;;;;;;;45.87;31.00;;;-2.40;99.90;;;;;;5055428;28;20301;-67
2022/12/17 14:47:09;;;;;;;43.43;29.60;;;-2.50;99.90;;;;;;5055534;28;20167;-67
2022/12/17 14:49:37;;;;;;;39.23;28.00;;;-2.60;99.90;;;;;;5054986;28;20198;-67
2022/12/17 14:52:12;;;;;;;41.73;30.43;;;-2.60;99.90;;;;;;5053613;28;20564;-67
2022/12/17 14:54:44;;;;;;;48.13;31.17;;;-2.70;99.90;;;;;;5053435;28;20209;-67
2022/12/17 14:57:21;;;;;;;38.57;27.43;;;-2.70;99.90;;;;;;5053566;28;20175;-70
2022/12/17 14:59:48;;;;;;;45.27;29.20;;;-2.80;99.90;;;;;;5053677;28;20229;-67
2022/12/17 15:02:26;;;;;;;44.30;30.37;;;-2.80;99.90;;;;;;5054709;28;20174;-67
2022/12/17 15:04:59;;;;;;;41.10;28.60;;;-2.90;99.90;;;;;;5054776;28;20169;-67
2022/12/17 15:07:29;;;;;;;42.33;29.43;;;-2.90;99.90;;;;;;5054549;28;20296;-67
2022/12/17 15:09:55;;;;;;;40.73;28.17;;;-3.00;99.90;;;;;;5054437;28;20746;-66
2022/12/17 15:12:23;;;;;;;44.30;30.57;;;-3.10;99.90;;;;;;5053083;28;20190;-68
2022/12/17 15:14:49;;;;;;;41.43;28.73;;;-3.10;99.90;;;;;;5054239;28;20295;-66
2022/12/17 15:17:15;;;;;;;46.57;30.73;;;-3.20;99.90;;;;;;5052979;28;20183;-66
2022/12/17 15:19:41;;;;;;;48.67;31.60;;;-3.30;99.90;;;;;;5054145;28;20178;-66
2022/12/17 15:22:15;;;;;;;43.67;29.47;;;-3.30;99.90;;;;;;5054690;28;20201;-66
2022/12/17 15:24:41;;;;;;;54.07;32.13;;;-3.40;99.90;;;;;;5054269;28;20198;-66
2022/12/17 15:27:15;;;;;;;46.87;31.70;;;-3.40;99.90;;;;;;5054082;28;20206;-66
2022/12/17 15:29:42;;;;;;;48.67;32.80;;;-3.50;99.90;;;;;;5055236;28;20209;-66
2022/12/17 15:32:19;;;;;;;48.53;31.73;;;-3.60;99.90;;;;;;5054640;28;20181;-66
2022/12/17 15:34:45;;;;;;;45.83;30.87;;;-3.60;99.90;;;;;;5054544;28;20196;-66
2022/12/17 15:37:11;;;;;;;43.80;30.50;;;-3.60;99.90;;;;;;5036898;28;20182;-66
2022/12/17 15:39:37;;;;;;;47.10;31.97;;;-3.60;99.90;;;;;;5054459;28;20249;-66
2022/12/17 15:44:46;;;;;;;49.03;34.60;;;-3.70;99.90;;;;;;5054080;28;20224;-66
2022/12/17 15:47:12;;;;;;;48.13;32.77;;;-3.80;99.90;;;;;;5054002;28;20183;-65
2022/12/17 15:49:38;;;;;;;46.27;32.17;;;-3.80;99.90;;;;;;5054138;28;20178;-66
2022/12/17 15:52:04;;;;;;;55.17;32.97;;;-3.90;99.90;;;;;;5054097;28;20185;-66
2022/12/17 15:54:30;;;;;;;46.10;30.43;;;-4.00;99.90;;;;;;5053942;28;20659;-66
2022/12/17 15:56:57;;;;;;;44.40;30.17;;;-4.10;99.90;;;;;;5036028;28;20186;-68
2022/12/17 15:59:23;;;;;;;48.13;31.20;;;-4.20;99.90;;;;;;5035904;28;20167;-67
2022/12/17 16:01:48;;;;;;;46.10;31.57;;;-4.20;99.90;;;;;;5053611;28;20253;-67
2022/12/17 16:04:14;;;;;;;45.03;30.80;;;-4.20;99.90;;;;;;5053452;28;20246;-67
2022/12/17 16:06:40;;;;;;;45.63;29.83;;;-4.30;99.90;;;;;;5053636;28;20603;-67
2022/12/17 16:09:05;;;;;;;47.77;29.87;;;-4.30;99.90;;;;;;5035758;28;20187;-66
2022/12/17 16:11:31;;;;;;;42.03;28.20;;;-4.30;99.90;;;;;;5035889;28;20220;-68
2022/12/17 16:13:57;;;;;;;47.17;31.20;;;-4.40;99.90;;;;;;5035529;28;20670;-68
2022/12/17 16:16:23;;;;;;;50.00;29.43;;;-4.50;99.90;;;;;;5053401;28;20178;-71
2022/12/17 16:18:49;;;;;;;46.07;30.03;;;-4.60;99.90;;;;;;5053139;28;20186;-68
2022/12/17 16:21:15;;;;;;;45.30;30.23;;;-4.60;99.90;;;;;;5052935;28;20194;-69
2022/12/17 16:23:41;;;;;;;46.90;29.60;;;-4.70;99.90;;;;;;5035556;28;20252;-69
2022/12/17 16:26:08;;;;;;;47.10;33.47;;;-4.80;99.90;;;;;;5035396;28;20210;-69
2022/12/17 16:28:35;;;;;;;52.70;32.37;;;-4.80;99.90;;;;;;5053170;28;20214;-69
2022/12/17 16:31:02;;;;;;;44.97;31.63;;;-4.90;99.90;;;;;;5053454;28;20182;-69
2022/12/17 16:33:33;;;;;;;50.47;31.37;;;-4.90;99.90;;;;;;5053149;28;20206;-69
2022/12/17 16:35:59;;;;;;;51.63;30.73;;;-5.00;99.90;;;;;;5035556;28;20302;-69
2022/12/17 16:38:24;;;;;;;49.63;30.90;;;-5.00;99.90;;;;;;5053272;28;20181;-69
2022/12/17 16:40:54;;;;;;;44.30;32.17;;;-5.00;99.90;;;;;;5035241;28;20182;-69
2022/12/17 16:43:20;;;;;;;42.63;31.17;;;-5.00;99.90;;;;;;5053448;28;20198;-69
2022/12/17 16:45:48;;;;;;;50.40;32.73;;;-5.10;99.90;;;;;;5053244;28;20676;-69
2022/12/17 16:48:16;;;;;;;44.90;30.87;;;-5.20;99.90;;;;;;5053021;28;20178;-69
2022/12/17 16:50:43;;;;;;;48.33;31.23;;;-5.20;99.90;;;;;;5035138;28;20201;-70
2022/12/17 16:53:09;;;;;;;48.83;31.63;;;-5.30;99.90;;;;;;5035019;28;20217;-70
2022/12/17 16:55:45;;;;;;;46.50;33.13;;;-5.30;99.90;;;;;;5053296;28;20182;-69
2022/12/17 16:58:12;;;;;;;48.97;31.60;;;-5.30;99.90;;;;;;5054266;28;20534;-68
2022/12/17 17:00:38;;;;;;;44.20;30.70;;;-5.40;99.90;;;;;;5054115;28;20181;-69
2022/12/17 17:03:05;;;;;;;48.63;31.67;;;-5.40;99.90;;;;;;5051921;28;20190;-69
2022/12/17 17:05:33;;;;;;;49.67;32.43;;;-5.40;99.90;;;;;;5051577;28;20174;-71
2022/12/17 17:07:59;;;;;;;52.83;33.07;;;-5.50;99.90;;;;;;5053891;28;20639;-65
2022/12/17 17:10:25;;;;;;;45.27;31.83;;;-5.60;99.90;;;;;;5035335;28;20175;-69
2022/12/17 17:12:51;;;;;;;49.83;34.57;;;-5.50;99.90;;;;;;5051975;28;20198;-69
2022/12/17 17:15:17;;;;;;;62.10;35.07;;;-5.60;99.90;;;;;;5053363;28;20647;-69
2022/12/17 17:17:43;;;;;;;51.57;33.50;;;-5.60;99.90;;;;;;5034903;28;20171;-69
2022/12/17 17:20:10;;;;;;;53.50;34.60;;;-5.70;99.90;;;;;;5052995;28;20244;-69
2022/12/17 17:22:35;;;;;;;47.57;33.20;;;-5.70;99.90;;;;;;5052923;28;20230;-69
2022/12/17 17:25:01;;;;;;;48.03;34.17;;;-5.70;99.90;;;;;;5053267;28;20191;-69
2022/12/17 17:27:27;;;;;;;51.33;32.63;;;-5.80;99.90;;;;;;5035049;28;20239;-69
2022/12/17 17:29:53;;;;;;;49.50;32.40;;;-5.80;99.90;;;;;;5053039;28;20213;-66
2022/12/17 17:32:18;;;;;;;48.37;35.77;;;-5.90;99.90;;;;;;5053840;28;20261;-65
2022/12/17 17:34:44;;;;;;;51.67;32.30;;;-5.90;99.90;;;;;;5056432;28;20337;-65
2022/12/17 17:37:10;;;;;;;49.23;33.03;;;-5.90;99.90;;;;;;5056498;28;20170;-65
2022/12/17 17:39:36;;;;;;;42.17;29.77;;;-5.80;99.90;;;;;;5056472;28;20586;-65
2022/12/17 17:42:01;;;;;;;44.40;29.37;;;-5.80;99.90;;;;;;5056757;28;20182;-65
2022/12/17 17:44:27;;;;;;;42.67;29.20;;;-5.80;99.90;;;;;;5056500;28;20697;-67
2022/12/17 17:46:55;;;;;;;48.17;29.73;;;-5.90;99.90;;;;;;5057393;28;20213;-68
2022/12/17 17:49:29;;;;;;;46.00;28.50;;;-5.90;99.90;;;;;;5039463;28;20190;-69
2022/12/17 17:52:02;;;;;;;43.80;30.07;;;-6.00;99.90;;;;;;5040025;28;20207;-66
2022/12/17 17:54:35;;;;;;;43.13;29.03;;;-6.00;99.90;;;;;;5039864;28;20206;-66
2022/12/17 17:57:07;;;;;;;40.93;27.30;;;-6.00;99.90;;;;;;5040228;28;20182;-66
2022/12/17 17:59:36;;;;;;;34.17;27.30;;;-6.00;99.90;;;;;;5039406;28;20193;-69
2022/12/17 18:02:05;;;;;;;35.10;26.53;;;-6.00;99.90;;;;;;5040631;28;20209;-68
2022/12/17 18:04:33;;;;;;;35.67;25.47;;;-6.10;99.90;;;;;;5039376;28;20274;-69
2022/12/17 18:07:00;;;;;;;38.77;25.83;;;-6.10;99.90;;;;;;5057070;28;20175;-68
2022/12/17 18:09:25;;;;;;;41.90;27.57;;;-6.20;99.90;;;;;;5038323;28;20186;-69
2022/12/17 18:11:52;;;;;;;31.20;24.17;;;-6.20;99.90;;;;;;5056580;28;20182;-68
2022/12/17 18:14:24;;;;;;;32.27;25.43;;;-6.30;99.90;;;;;;5038400;28;20206;-67
2022/12/17 18:16:56;;;;;;;34.73;26.53;;;-6.30;99.90;;;;;;5038839;28;20183;-68
2022/12/17 18:19:32;;;;;;;30.30;24.97;;;-6.30;99.90;;;;;;5039230;28;20190;-69
2022/12/17 18:21:58;;;;;;;28.00;23.13;;;-6.30;99.90;;;;;;5053976;28;20232;-68
2022/12/17 18:24:24;;;;;;;29.27;23.70;;;-6.40;99.90;;;;;;5054296;28;20202;-68
2022/12/17 18:26:51;;;;;;;31.70;23.73;;;-6.50;99.90;;;;;;5055658;28;20597;-68
2022/12/17 18:29:21;;;;;;;30.27;23.27;;;-6.50;99.90;;;;;;5055409;28;20651;-67
2022/12/17 18:31:47;;;;;;;29.43;23.57;;;-6.50;99.90;;;;;;5054244;28;20217;-68
2022/12/17 18:34:15;;;;;;;27.10;23.00;;;-6.60;99.90;;;;;;5055057;28;20304;-68
2022/12/17 18:36:43;;;;;;;30.47;22.57;;;-6.60;99.90;;;;;;5055537;28;20269;-68
2022/12/17 18:39:21;;;;;;;32.57;23.50;;;-6.60;99.90;;;;;;5054696;28;20542;-65
2022/12/17 18:44:41;;;;;;;29.37;20.77;;;-6.60;99.90;;;;;;5046060;28;20215;-66
2022/12/17 18:47:09;;;;;;;34.20;22.63;;;-6.70;99.90;;;;;;5055059;28;20159;-66
2022/12/17 18:49:35;;;;;;;24.87;22.17;;;-6.80;99.90;;;;;;5054885;28;20231;-65
2022/12/17 18:52:01;;;;;;;30.73;24.23;;;-6.90;99.90;;;;;;5055409;28;20628;-67
2022/12/17 18:54:29;;;;;;;44.70;30.63;;;-6.90;99.90;;;;;;5054629;28;20233;-67
2022/12/17 18:56:56;;;;;;;48.60;32.47;;;-6.90;99.90;;;;;;5054836;28;20175;-67
2022/12/17 18:59:25;;;;;;;57.07;35.60;;;-6.90;99.90;;;;;;5053518;28;20194;-68
2022/12/17 19:01:51;;;;;;;63.80;37.50;;;-6.90;99.90;;;;;;5053455;28;20182;-67
2022/12/17 19:04:19;;;;;;;57.03;35.33;;;-7.00;99.90;;;;;;5054543;28;20206;-67
2022/12/17 19:06:47;;;;;;;44.07;31.33;;;-7.10;99.90;;;;;;5054678;28;20186;-67
2022/12/17 19:09:26;;;;;;;42.90;31.50;;;-7.20;99.90;;;;;;5053427;28;20174;-67
2022/12/17 19:11:53;;;;;;;39.77;29.00;;;-7.10;99.90;;;;;;5054951;28;20178;-68
2022/12/17 19:14:21;;;;;;;44.87;29.93;;;-7.10;99.90;;;;;;5054023;28;20249;-66
2022/12/17 19:16:48;;;;;;;39.30;28.20;;;-7.10;99.90;;;;;;5054979;28;20175;-65
2022/12/17 19:22:35;;;;;;;43.63;30.77;;;-7.10;99.90;;;;;;5072629;22;20295;-65
2022/12/17 19:25:01;;;;;;;67.20;41.37;;;-7.10;99.90;;;;;;5093698;28;20177;-67
2022/12/17 19:27:27;;;;;;;78.00;45.63;;;-7.20;99.90;;;;;;5094613;28;20180;-66
2022/12/17 19:29:55;;;;;;;86.93;47.27;;;-7.20;99.90;;;;;;5076247;28;20181;-65
2022/12/17 19:32:22;;;;;;;53.47;40.10;;;-7.20;99.90;;;;;;5093233;28;20177;-65
2022/12/17 19:34:48;;;;;;;67.77;43.97;;;-7.20;99.90;;;;;;5094906;28;20216;-65
2022/12/17 19:37:13;;;;;;;58.77;41.17;;;-7.20;99.90;;;;;;5077261;28;20644;-65
2022/12/17 19:39:39;;;;;;;53.23;36.53;;;-7.20;99.90;;;;;;5094266;28;20256;-65
2022/12/17 19:42:23;;;;;;;45.93;35.37;;;-7.30;99.90;;;;;;5076281;28;20188;-66
2022/12/17 19:44:49;;;;;;;61.00;34.83;;;-7.30;99.90;;;;;;5095133;28;20165;-65
2022/12/17 19:47:15;;;;;;;53.90;36.37;;;-7.40;99.90;;;;;;5094108;28;20165;-66
2022/12/17 19:49:41;;;;;;;50.10;33.03;;;-7.40;99.90;;;;;;5075825;28;20527;-65
2022/12/17 19:52:07;;;;;;;53.23;35.97;;;-7.40;99.90;;;;;;5075983;28;20177;-66
2022/12/17 19:54:33;;;;;;;45.80;33.77;;;-7.30;99.90;;;;;;5075853;28;20684;-66
2022/12/17 19:56:59;;;;;;;46.97;33.17;;;-7.30;99.90;;;;;;5093591;28;20172;-65
2022/12/17 19:59:25;;;;;;;44.77;29.00;;;-7.30;99.90;;;;;;5093952;28;20196;-65
2022/12/17 20:01:51;;;;;;;44.47;30.33;;;-7.30;99.90;;;;;;5094210;28;20208;-66
2022/12/17 20:04:17;;;;;;;51.20;29.13;;;-7.30;99.90;;;;;;5075795;28;20197;-66
2022/12/17 20:06:44;;;;;;;37.93;29.80;;;-7.40;99.90;;;;;;5075824;28;20161;-66
2022/12/17 20:09:11;;;;;;;45.33;32.23;;;-7.50;99.90;;;;;;5094538;28;20150;-66
2022/12/17 20:11:37;;;;;;;44.90;29.23;;;-7.50;99.90;;;;;;5094578;28;20753;-67
2022/12/17 20:14:08;;;;;;;42.93;28.87;;;-7.50;99.90;;;;;;5075627;28;20200;-66
2022/12/17 20:16:37;;;;;;;47.93;32.37;;;-7.60;99.90;;;;;;5075908;28;20524;-67
2022/12/17 20:19:05;;;;;;;46.73;33.37;;;-7.60;99.90;;;;;;5075920;28;20538;-67
2022/12/17 20:21:31;;;;;;;45.00;32.33;;;-7.70;99.90;;;;;;5093677;28;20195;-67
2022/12/17 20:23:57;;;;;;;55.47;34.60;;;-7.70;99.90;;;;;;5094088;28;20200;-65
2022/12/17 20:26:25;;;;;;;56.33;35.63;;;-7.70;99.90;;;;;;5093598;28;20262;-65
2022/12/17 20:28:51;;;;;;;48.83;32.27;;;-7.80;99.90;;;;;;5093656;28;20205;-64
2022/12/17 20:31:18;;;;;;;51.30;34.33;;;-7.80;99.90;;;;;;5094087;28;20248;-65
2022/12/17 20:33:44;;;;;;;47.93;32.80;;;-7.90;99.90;;;;;;5093602;28;20204;-65
2022/12/17 20:36:15;;;;;;;42.83;29.80;;;-7.90;99.90;;;;;;5093700;28;20201;-64
2022/12/17 20:38:42;;;;;;;42.57;32.73;;;-7.90;99.90;;;;;;5093725;28;20172;-64
2022/12/17 20:41:14;;;;;;;46.07;31.83;;;-7.80;99.90;;;;;;5075536;28;20215;-65
2022/12/17 20:43:41;;;;;;;49.73;32.03;;;-7.80;99.90;;;;;;5093564;28;20212;-64
2022/12/17 20:46:08;;;;;;;42.33;29.97;;;-7.80;99.90;;;;;;5093729;28;20157;-64
2022/12/17 20:48:35;;;;;;;50.63;32.63;;;-7.90;99.90;;;;;;5075372;28;20181;-65
2022/12/17 20:51:10;;;;;;;51.50;33.13;;;-7.90;99.90;;;;;;5075280;28;20657;-66
2022/12/17 20:53:38;;;;;;;69.70;38.73;;;-7.90;99.90;;;;;;5093634;28;20234;-71
2022/12/17 20:56:07;;;;;;;67.97;38.00;;;-7.80;99.90;;;;;;5093934;28;20176;-66
2022/12/17 20:58:33;;;;;;;68.80;40.83;;;-7.80;99.90;;;;;;5075651;28;20200;-67
2022/12/17 21:01:07;;;;;;;50.20;33.90;;;-7.70;99.90;;;;;;5093155;28;20177;-67
2022/12/17 21:03:33;;;;;;;40.20;31.40;;;-7.70;99.90;;;;;;5074957;28;20196;-67
2022/12/17 21:06:08;;;;;;;37.93;30.17;;;-7.70;99.90;;;;;;5093468;28;20260;-67
2022/12/17 21:08:34;;;;;;;45.13;30.83;;;-7.70;99.90;;;;;;5079232;28;20654;-67
2022/12/17 21:11:01;;;;;;;46.70;30.23;;;-7.80;99.90;;;;;;5097196;28;20189;-67
2022/12/17 21:13:30;;;;;;;38.50;29.13;;;-7.80;99.90;;;;;;5097307;28;20284;-67
2022/12/17 21:16:01;;;;;;;37.23;28.07;;;-7.90;99.90;;;;;;5097499;28;20192;-67
2022/12/17 21:18:28;;;;;;;41.00;30.73;;;-8.00;99.90;;;;;;5097149;28;20667;-67
2022/12/17 21:20:59;;;;;;;41.63;28.77;;;-8.00;99.90;;;;;;5097002;28;20177;-67
2022/12/17 21:23:27;;;;;;;53.10;34.10;;;-8.00;99.90;;;;;;5097147;28;20221;-67
2022/12/17 21:26:06;;;;;;;47.63;32.77;;;-8.10;99.90;;;;;;5097148;28;20185;-67
2022/12/17 21:28:34;;;;;;;42.33;30.20;;;-8.10;99.90;;;;;;5079575;28;20274;-65
2022/12/17 21:30:59;;;;;;;36.50;28.27;;;-8.10;99.90;;;;;;5096951;28;20550;-65
2022/12/17 21:33:25;;;;;;;41.50;31.53;;;-8.10;99.90;;;;;;5096899;28;20208;-65
2022/12/17 21:36:05;;;;;;;44.00;30.33;;;-8.10;99.90;;;;;;5097355;28;20621;-69
2022/12/17 21:38:31;;;;;;;46.40;29.83;;;-8.10;99.90;;;;;;5078796;28;20230;-70
2022/12/17 21:41:08;;;;;;;41.27;30.43;;;-8.00;99.90;;;;;;5078341;28;20184;-65
2022/12/17 21:43:35;;;;;;;39.83;31.63;;;-8.00;99.90;;;;;;5078337;28;20242;-64
2022/12/17 21:46:02;;;;;;;39.83;28.33;;;-8.00;99.90;;;;;;5096721;28;20561;-64
2022/12/17 21:48:28;;;;;;;35.90;27.43;;;-8.00;99.90;;;;;;5096349;28;20177;-64
2022/12/17 21:50:53;;;;;;;37.70;28.47;;;-8.10;99.90;;;;;;5096842;28;20181;-64
2022/12/17 21:53:19;;;;;;;42.20;29.07;;;-8.10;99.90;;;;;;5096142;28;20208;-64
2022/12/17 21:55:45;;;;;;;43.97;30.60;;;-8.20;99.90;;;;;;5078082;28;20286;-64
2022/12/17 21:58:11;;;;;;;45.23;31.53;;;-8.30;99.90;;;;;;5077981;28;20226;-64
2022/12/17 22:00:37;;;;;;;35.30;28.90;;;-8.40;99.90;;;;;;5096230;28;20197;-65
2022/12/17 22:03:03;;;;;;;31.53;28.13;;;-8.40;99.90;;;;;;5096567;28;20287;-65
2022/12/17 22:05:29;;;;;;;37.63;28.63;;;-8.40;99.90;;;;;;5096150;28;20191;-65
2022/12/17 22:07:54;;;;;;;36.60;28.90;;;-8.30;99.90;;;;;;5077964;28;20203;-66
2022/12/17 22:10:20;;;;;;;47.83;30.30;;;-8.40;99.90;;;;;;5096337;28;20173;-65
2022/12/17 22:15:30;;;;;;;40.80;30.03;;;-8.40;99.90;;;;;;5096280;28;20246;-65
2022/12/17 22:17:56;;;;;;;46.07;31.10;;;-8.30;99.90;;;;;;5095712;28;20222;-65
2022/12/17 22:20:22;;;;;;;47.93;33.67;;;-8.40;99.90;;;;;;5077388;28;20177;-66
2022/12/17 22:22:48;;;;;;;47.07;31.57;;;-8.30;99.90;;;;;;5077410;28;20244;-65
2022/12/17 22:25:15;;;;;;;81.00;40.53;;;-8.40;99.90;;;;;;5096263;28;20553;-65
2022/12/17 22:27:41;;;;;;;41.27;30.57;;;-8.40;99.90;;;;;;5095666;28;20177;-66
2022/12/17 22:32:59;;;;;;;51.97;34.27;;;-8.50;99.90;;;;;;5096103;28;20254;-66
2022/12/17 22:35:27;;;;;;;39.37;30.10;;;-8.40;99.90;;;;;;5096155;28;20672;-65
2022/12/17 22:37:53;;;;;;;39.67;30.40;;;-8.40;99.90;;;;;;5079452;28;20226;-65
2022/12/17 22:40:21;;;;;;;46.90;30.97;;;-8.50;99.90;;;;;;5095391;28;20173;-65
2022/12/17 22:45:30;;;;;;;42.23;27.87;;;-8.50;99.90;;;;;;5095650;28;20187;-68
2022/12/17 22:47:56;;;;;;;40.03;27.63;;;-8.40;99.90;;;;;;5095744;28;20260;-67
2022/12/17 22:50:22;;;;;;;39.97;28.67;;;-8.40;99.90;;;;;;5095221;28;20188;-65
2022/12/17 22:52:47;;;;;;;31.00;27.30;;;-8.40;99.90;;;;;;5095213;28;20200;-66
2022/12/17 22:55:13;;;;;;;36.40;26.87;;;-8.50;99.90;;;;;;5095123;28;20290;-65
2022/12/17 22:57:39;;;;;;;42.83;30.80;;;-8.50;99.90;;;;;;5077021;28;20276;-65
2022/12/17 23:00:13;;;;;;;43.17;29.13;;;-8.50;99.90;;;;;;5095106;28;20230;-65
2022/12/17 23:02:39;;;;;;;40.17;30.77;;;-8.60;99.90;;;;;;5076914;28;20177;-66
2022/12/17 23:05:05;;;;;;;36.10;28.93;;;-8.60;99.90;;;;;;5094963;28;20226;-65
2022/12/17 23:07:31;;;;;;;36.63;27.90;;;-8.60;99.90;;;;;;5095122;28;20177;-65
2022/12/17 23:09:57;;;;;;;34.60;27.23;;;-8.60;99.90;;;;;;5094966;28;20181;-65
2022/12/17 23:15:07;;;;;;;36.07;27.57;;;-8.60;99.90;;;;;;5095197;28;20203;-66
2022/12/17 23:17:33;;;;;;;38.20;30.03;;;-8.60;99.90;;;;;;5094734;28;20248;-65
2022/12/17 23:19:59;;;;;;;42.07;29.57;;;-8.50;99.90;;;;;;5094681;28;20203;-65
2022/12/17 23:22:25;;;;;;;41.23;29.10;;;-8.60;99.90;;;;;;5094866;28;20644;-66
2022/12/17 23:24:50;;;;;;;40.97;29.50;;;-8.70;99.90;;;;;;5095157;28;20185;-65
2022/12/17 23:27:16;;;;;;;41.10;28.67;;;-8.70;99.90;;;;;;5094909;28;20186;-65
2022/12/17 23:29:42;;;;;;;36.40;29.60;;;-8.80;99.90;;;;;;5094028;28;20241;-66
2022/12/17 23:32:07;;;;;;;46.43;30.23;;;-8.90;99.90;;;;;;5094048;28;20187;-65
2022/12/17 23:34:33;;;;;;;40.80;27.50;;;-8.90;99.90;;;;;;5076088;28;20213;-65
2022/12/17 23:36:59;;;;;;;37.03;29.30;;;-8.90;99.90;;;;;;5094384;28;20178;-65
2022/12/17 23:39:25;;;;;;;42.30;27.83;;;-8.80;99.90;;;;;;5076192;28;20253;-65
2022/12/17 23:41:53;;;;;;;36.27;27.53;;;-8.90;99.90;;;;;;5094342;28;20652;-66
2022/12/17 23:44:19;;;;;;;34.63;29.23;;;-8.90;99.90;;;;;;5094277;28;20213;-65
2022/12/17 23:46:45;;;;;;;40.60;29.27;;;-8.80;99.90;;;;;;5076182;28;20215;-65
2022/12/17 23:49:11;;;;;;;42.90;30.87;;;-8.90;99.90;;;;;;5094242;28;20230;-66
2022/12/17 23:51:36;;;;;;;37.07;28.03;;;-8.90;99.90;;;;;;5076222;28;20652;-65
2022/12/17 23:54:02;;;;;;;39.47;28.73;;;-8.90;99.90;;;;;;5093995;28;20205;-65
2022/12/17 23:56:28;;;;;;;31.87;27.43;;;-8.90;99.90;;;;;;5094324;28;20224;-65
2022/12/17 23:58:57;;;;;;;32.37;26.60;;;-8.80;99.90;;;;;;5076000;28;20181;-65
